createdAt,value
2018-09-02T00:01:52.474Z,55.32
2018-09-02T00:04:20.183Z,55.47
2018-09-02T00:06:47.914Z,55.42
2018-09-02T00:09:15.656Z,55.65
2018-09-02T00:11:43.340Z,55.45
2018-09-02T00:14:11.048Z,55.59
2018-09-02T00:16:38.740Z,55.33
2018-09-02T00:19:06.508Z,55.16
2018-09-02T00:21:34.219Z,55.38
2018-09-02T00:24:01.922Z,55.46
2018-09-02T00:26:29.700Z,55.94
2018-09-02T00:28:57.424Z,55.41
2018-09-02T00:31:25.130Z,56.02
2018-09-02T00:33:52.879Z,55.35
2018-09-02T00:36:20.497Z,56.04
2018-09-02T00:38:48.204Z,56.13
2018-09-02T00:41:15.948Z,55.58
2018-09-02T00:43:43.649Z,55.36
2018-09-02T00:46:11.321Z,55.92
2018-09-02T00:48:39.056Z,55.36
2018-09-02T00:51:06.819Z,55.37
2018-09-02T00:53:34.611Z,56.13
2018-09-02T00:56:02.470Z,55.94
2018-09-02T00:58:30.216Z,56.00
2018-09-02T01:00:57.986Z,55.36
2018-09-02T01:03:25.697Z,55.40
2018-09-02T01:05:53.445Z,55.72
2018-09-02T01:08:21.174Z,55.57
2018-09-02T01:10:49.608Z,55.35
2018-09-02T01:13:17.780Z,56.39
2018-09-02T01:15:46.161Z,55.71
2018-09-02T01:18:13.961Z,55.40
2018-09-02T01:20:41.761Z,55.28
2018-09-02T01:23:09.575Z,55.55
2018-09-02T01:25:37.742Z,56.06
2018-09-02T01:28:05.586Z,55.38
2018-09-02T01:30:33.461Z,56.10
2018-09-02T01:33:01.244Z,56.00
2018-09-02T01:35:33.889Z,55.39
2018-09-02T01:38:03.097Z,55.68
2018-09-02T01:40:30.893Z,55.49
2018-09-02T01:42:58.627Z,55.49
2018-09-02T01:45:26.445Z,56.12
2018-09-02T01:47:54.233Z,56.04
2018-09-02T01:50:21.965Z,55.40
2018-09-02T01:52:49.866Z,55.38
2018-09-02T01:55:17.814Z,55.50
2018-09-02T01:57:45.521Z,55.24
2018-09-02T02:00:13.354Z,55.36
2018-09-02T02:02:41.074Z,56.18
2018-09-02T02:05:08.912Z,55.52
2018-09-02T02:07:36.664Z,56.02
2018-09-02T02:10:04.392Z,55.43
2018-09-02T02:12:32.181Z,55.57
2018-09-02T02:14:59.912Z,55.46
2018-09-02T02:17:27.685Z,55.40
2018-09-02T02:19:55.455Z,55.44
2018-09-02T02:22:23.205Z,56.03
2018-09-02T02:24:50.867Z,55.60
2018-09-02T02:27:18.596Z,55.91
2018-09-02T02:29:46.382Z,55.52
2018-09-02T02:32:14.067Z,55.89
2018-09-02T02:34:41.793Z,55.50
2018-09-02T02:37:09.542Z,56.13
2018-09-02T02:39:37.265Z,55.58
2018-09-02T02:42:05.041Z,55.60
2018-09-02T02:44:32.820Z,55.40
2018-09-02T02:47:00.673Z,55.49
2018-09-02T02:49:28.424Z,55.99
2018-09-02T02:51:56.192Z,55.38
2018-09-02T02:54:23.917Z,55.92
2018-09-02T02:56:51.769Z,55.98
2018-09-02T02:59:19.685Z,56.01
2018-09-02T03:01:47.441Z,55.54
2018-09-02T03:04:15.199Z,55.75
2018-09-02T03:06:43.094Z,55.59
2018-09-02T03:09:12.150Z,55.58
2018-09-02T03:11:40.068Z,55.54
2018-09-02T03:14:08.475Z,56.37
2018-09-02T03:16:36.253Z,56.26
2018-09-02T03:19:04.139Z,55.81
2018-09-02T03:21:31.874Z,56.41
2018-09-02T03:23:59.559Z,55.50
2018-09-02T03:26:27.363Z,55.54
2018-09-02T03:28:55.270Z,55.71
2018-09-02T03:31:23.118Z,55.56
2018-09-02T03:33:50.786Z,55.53
2018-09-02T03:36:18.593Z,56.14
2018-09-02T03:38:46.356Z,56.08
2018-09-02T03:41:14.162Z,55.77
2018-09-02T03:43:41.970Z,56.27
2018-09-02T03:46:09.660Z,55.88
2018-09-02T03:48:37.371Z,55.65
2018-09-02T03:51:05.176Z,56.28
2018-09-02T03:53:42.114Z,56.22
2018-09-02T03:56:09.921Z,55.51
2018-09-02T03:58:37.668Z,55.62
2018-09-02T04:01:05.367Z,55.53
2018-09-02T04:03:33.156Z,55.78
2018-09-02T04:06:00.925Z,56.41
2018-09-02T04:08:28.707Z,56.35
2018-09-02T04:10:56.473Z,56.04
2018-09-02T04:13:24.194Z,55.55
2018-09-02T04:15:51.942Z,56.11
2018-09-02T04:18:19.739Z,55.76
2018-09-02T04:20:47.566Z,56.29
2018-09-02T04:23:15.317Z,55.35
2018-09-02T04:25:43.056Z,55.67
2018-09-02T04:28:10.821Z,55.66
2018-09-02T04:30:38.565Z,55.83
2018-09-02T04:33:06.343Z,56.06
2018-09-02T04:35:34.066Z,55.70
2018-09-02T04:38:01.837Z,55.63
2018-09-02T04:40:29.714Z,55.54
2018-09-02T04:42:57.397Z,55.79
2018-09-02T04:45:25.230Z,56.20
2018-09-02T04:47:52.920Z,55.63
2018-09-02T04:50:21.487Z,56.35
2018-09-02T04:52:49.254Z,56.23
2018-09-02T04:55:16.981Z,55.59
2018-09-02T04:57:45.413Z,56.35
2018-09-02T05:00:13.264Z,56.22
2018-09-02T05:02:40.961Z,56.65
2018-09-02T05:05:08.709Z,55.64
2018-09-02T05:07:36.774Z,56.33
2018-09-02T05:10:04.755Z,56.29
2018-09-02T05:12:32.417Z,56.61
2018-09-02T05:15:00.354Z,56.28
2018-09-02T05:17:29.895Z,55.63
2018-09-02T05:19:58.275Z,56.40
2018-09-02T05:22:26.072Z,56.18
2018-09-02T05:24:53.766Z,55.93
2018-09-02T05:27:21.660Z,55.60
2018-09-02T05:29:50.074Z,56.27
2018-09-02T05:32:17.787Z,56.29
2018-09-02T05:34:45.636Z,56.38
2018-09-02T05:37:13.788Z,55.71
2018-09-02T05:39:41.614Z,55.59
2018-09-02T05:42:09.386Z,56.36
2018-09-02T05:44:37.197Z,55.45
2018-09-02T05:47:05.080Z,56.28
2018-09-02T05:49:32.871Z,55.59
2018-09-02T05:52:00.709Z,55.96
2018-09-02T05:54:28.484Z,56.17
2018-09-02T05:56:56.270Z,56.22
2018-09-02T05:59:24.041Z,55.60
2018-09-02T06:01:51.834Z,55.55
2018-09-02T06:04:19.616Z,56.44
2018-09-02T06:06:47.327Z,55.65
2018-09-02T06:09:15.085Z,56.26
2018-09-02T06:11:42.794Z,56.37
2018-09-02T06:14:10.567Z,55.62
2018-09-02T06:16:38.442Z,55.80
2018-09-02T06:19:06.312Z,55.68
2018-09-02T06:21:34.105Z,55.94
2018-09-02T06:24:01.906Z,55.68
2018-09-02T06:26:29.709Z,56.32
2018-09-02T06:28:57.481Z,55.73
2018-09-02T06:31:25.287Z,56.20
2018-09-02T06:33:53.011Z,56.33
2018-09-02T06:36:20.860Z,56.43
2018-09-02T06:38:48.694Z,56.44
2018-09-02T06:41:16.597Z,56.29
2018-09-02T06:43:44.337Z,55.58
2018-09-02T06:46:12.080Z,55.57
2018-09-02T06:48:40.015Z,55.63
2018-09-02T06:51:07.751Z,56.31
2018-09-02T06:53:35.612Z,56.20
2018-09-02T06:56:03.358Z,55.65
2018-09-02T06:58:37.061Z,55.79
2018-09-02T07:01:08.523Z,55.96
2018-09-02T07:03:43.224Z,55.81
2018-09-02T07:06:12.003Z,55.68
2018-09-02T07:08:40.372Z,56.51
2018-09-02T07:11:08.079Z,56.51
2018-09-02T07:13:35.931Z,56.16
2018-09-02T07:16:03.660Z,56.54
2018-09-02T07:18:31.398Z,56.82
2018-09-02T07:20:59.122Z,55.91
2018-09-02T07:23:28.349Z,56.00
2018-09-02T07:25:56.086Z,58.20
2018-09-02T07:28:24.093Z,59.15
2018-09-02T07:30:51.884Z,60.32
2018-09-02T07:33:20.376Z,60.36
2018-09-02T07:35:48.290Z,58.81
2018-09-02T07:38:16.272Z,57.36
2018-09-02T07:40:44.140Z,57.90
2018-09-02T07:43:11.919Z,57.36
2018-09-02T07:45:39.584Z,57.42
2018-09-02T07:48:07.279Z,57.59
2018-09-02T07:50:34.913Z,58.31
2018-09-02T07:53:02.557Z,58.22
2018-09-02T07:55:30.383Z,58.30
2018-09-02T07:57:58.901Z,57.25
2018-09-02T08:00:26.553Z,57.93
2018-09-02T08:02:54.246Z,57.84
2018-09-02T08:05:21.886Z,57.37
2018-09-02T08:07:49.874Z,57.51
2018-09-02T08:10:17.526Z,56.99
2018-09-02T08:12:45.306Z,57.32
2018-09-02T08:15:13.017Z,56.98
2018-09-02T08:17:40.632Z,57.08
2018-09-02T08:20:08.316Z,57.52
2018-09-02T08:22:36.788Z,57.66
2018-09-02T08:25:04.533Z,57.21
2018-09-02T08:27:32.145Z,57.60
2018-09-02T08:29:59.786Z,56.93
2018-09-02T08:32:27.447Z,57.30
2018-09-02T08:34:55.072Z,56.70
2018-09-02T08:37:22.724Z,56.85
2018-09-02T08:39:50.458Z,56.62
2018-09-02T08:42:18.081Z,57.22
2018-09-02T08:44:45.715Z,56.32
2018-09-02T08:47:13.353Z,56.68
2018-09-02T08:49:40.981Z,56.48
2018-09-02T08:52:08.989Z,56.31
2018-09-02T08:54:36.625Z,56.45
2018-09-02T08:57:04.245Z,56.73
2018-09-02T08:59:31.876Z,56.33
2018-09-02T09:01:59.538Z,55.95
2018-09-02T09:04:27.165Z,56.30
2018-09-02T09:06:54.794Z,56.74
2018-09-02T09:09:22.512Z,56.37
2018-09-02T09:11:50.065Z,56.75
2018-09-02T09:14:17.702Z,55.98
2018-09-02T09:16:45.503Z,57.19
2018-09-02T09:19:13.074Z,56.52
2018-09-02T09:21:40.917Z,56.34
2018-09-02T09:24:08.709Z,56.93
2018-09-02T09:26:36.517Z,56.61
2018-09-02T09:29:04.273Z,56.91
2018-09-02T09:31:32.279Z,56.50
2018-09-02T09:34:00.142Z,56.87
2018-09-02T09:36:27.875Z,57.18
2018-09-02T09:38:55.697Z,57.10
2018-09-02T09:41:23.392Z,56.68
2018-09-02T09:43:51.126Z,56.37
2018-09-02T09:46:18.856Z,56.94
2018-09-02T09:48:46.637Z,56.27
2018-09-02T09:51:14.471Z,56.32
2018-09-02T09:53:42.370Z,56.96
2018-09-02T09:56:10.115Z,56.96
2018-09-02T09:58:37.781Z,56.25
2018-09-02T10:01:05.494Z,56.95
2018-09-02T10:03:33.238Z,56.84
2018-09-02T10:06:00.969Z,56.89
2018-09-02T10:08:28.694Z,56.21
2018-09-02T10:10:56.393Z,56.58
2018-09-02T10:13:24.128Z,56.88
2018-09-02T10:15:51.877Z,56.65
2018-09-02T10:18:19.538Z,56.21
2018-09-02T10:20:47.235Z,56.84
2018-09-02T10:23:14.950Z,57.02
2018-09-02T10:25:42.655Z,57.11
2018-09-02T10:28:10.421Z,56.63
2018-09-02T10:30:38.170Z,56.73
2018-09-02T10:33:05.864Z,56.49
2018-09-02T10:35:33.538Z,56.59
2018-09-02T10:38:01.164Z,56.26
2018-09-02T10:40:28.846Z,56.71
2018-09-02T10:42:56.547Z,56.23
2018-09-02T10:45:24.175Z,56.52
2018-09-02T10:47:51.816Z,57.04
2018-09-02T10:50:19.457Z,56.80
2018-09-02T10:52:47.093Z,56.62
2018-09-02T10:55:14.739Z,56.68
2018-09-02T10:57:42.374Z,56.86
2018-09-02T11:00:10.156Z,57.04
2018-09-02T11:02:37.789Z,56.43
2018-09-02T11:05:06.143Z,56.60
2018-09-02T11:07:33.857Z,56.80
2018-09-02T11:10:01.467Z,56.96
2018-09-02T11:12:29.076Z,57.13
2018-09-02T11:14:56.742Z,56.87
2018-09-02T11:17:24.386Z,56.59
2018-09-02T11:19:52.037Z,56.30
2018-09-02T11:22:19.669Z,56.72
2018-09-02T11:24:47.301Z,56.54
2018-09-02T11:27:14.935Z,56.35
2018-09-02T11:29:42.608Z,56.29
2018-09-02T11:32:10.262Z,56.43
2018-09-02T11:34:37.893Z,56.89
2018-09-02T11:37:05.555Z,56.42
2018-09-02T11:39:33.197Z,56.38
2018-09-02T11:42:00.834Z,56.45
2018-09-02T11:44:28.457Z,56.31
2018-09-02T11:46:56.194Z,57.01
2018-09-02T11:49:24.054Z,56.92
2018-09-02T11:51:51.703Z,56.52
2018-09-02T11:54:19.346Z,56.44
2018-09-02T11:56:46.975Z,56.71
2018-09-02T11:59:14.639Z,56.99
2018-09-02T12:01:42.786Z,57.01
2018-09-02T12:04:10.526Z,56.21
2018-09-02T12:06:38.565Z,56.21
2018-09-02T12:09:07.310Z,56.54
2018-09-02T12:11:35.566Z,56.30
2018-09-02T12:14:03.393Z,56.28
2018-09-02T12:16:31.135Z,57.04
2018-09-02T12:18:58.824Z,56.41
2018-09-02T12:21:26.698Z,56.50
2018-09-02T12:23:54.450Z,56.84
2018-09-02T12:26:22.091Z,57.10
2018-09-02T12:28:49.744Z,57.13
2018-09-02T12:31:17.386Z,56.08
2018-09-02T12:33:45.023Z,56.56
2018-09-02T12:36:12.662Z,57.11
2018-09-02T12:38:40.277Z,56.61
2018-09-02T12:41:07.932Z,56.19
2018-09-02T12:43:35.589Z,57.03
2018-09-02T12:46:03.270Z,56.99
2018-09-02T12:48:31.218Z,56.75
2018-09-02T12:50:58.924Z,56.67
2018-09-02T12:53:26.622Z,56.81
2018-09-02T12:55:54.337Z,56.37
2018-09-02T12:58:22.017Z,56.29
2018-09-02T13:00:49.673Z,56.08
2018-09-02T13:03:17.399Z,56.38
2018-09-02T13:05:44.960Z,56.90
2018-09-02T13:08:12.656Z,56.11
2018-09-02T13:10:40.419Z,56.77
2018-09-02T13:13:08.090Z,56.14
2018-09-02T13:15:35.736Z,56.93
2018-09-02T13:18:03.352Z,56.80
2018-09-02T13:20:31.004Z,56.20
2018-09-02T13:22:58.642Z,55.84
2018-09-02T13:25:26.273Z,56.07
2018-09-02T13:27:53.917Z,56.55
2018-09-02T13:30:21.562Z,56.54
2018-09-02T13:32:49.211Z,56.22
2018-09-02T13:35:16.853Z,56.67
2018-09-02T13:37:44.527Z,56.12
2018-09-02T13:40:12.173Z,56.71
2018-09-02T13:42:39.864Z,56.77
2018-09-02T13:45:07.766Z,56.65
2018-09-02T13:47:35.453Z,56.22
2018-09-02T13:50:03.078Z,56.91
2018-09-02T13:52:30.706Z,56.25
2018-09-02T13:54:58.371Z,56.27
2018-09-02T13:57:26.006Z,56.30
2018-09-02T13:59:53.609Z,56.12
2018-09-02T14:02:21.249Z,56.97
2018-09-02T14:04:48.886Z,56.85
2018-09-02T14:07:16.518Z,56.96
2018-09-02T14:09:44.299Z,56.75
2018-09-02T14:12:11.963Z,56.58
2018-09-02T14:14:39.694Z,56.63
2018-09-02T14:17:07.336Z,57.07
2018-09-02T14:19:34.986Z,56.28
2018-09-02T14:22:02.625Z,56.95
2018-09-02T14:24:30.254Z,57.02
2018-09-02T14:26:57.878Z,56.63
2018-09-02T14:29:25.570Z,57.05
2018-09-02T14:31:53.266Z,56.41
2018-09-02T14:34:20.903Z,57.04
2018-09-02T14:36:48.538Z,56.25
2018-09-02T14:39:16.164Z,57.01
2018-09-02T14:41:43.924Z,56.68
2018-09-02T14:44:11.545Z,56.63
2018-09-02T14:46:39.752Z,56.29
2018-09-02T14:49:07.912Z,56.25
2018-09-02T14:51:35.572Z,56.29
2018-09-02T14:54:03.303Z,57.05
2018-09-02T14:56:30.986Z,56.29
2018-09-02T14:58:58.593Z,56.80
2018-09-02T15:01:26.254Z,56.23
2018-09-02T15:03:53.906Z,56.29
2018-09-02T15:06:21.595Z,56.34
2018-09-02T15:08:49.230Z,56.95
2018-09-02T15:11:16.934Z,57.04
2018-09-02T15:13:44.638Z,56.66
2018-09-02T15:16:12.647Z,56.29
2018-09-02T15:18:40.329Z,56.42
2018-09-02T15:21:07.981Z,57.01
2018-09-02T15:23:35.660Z,56.58
2018-09-02T15:26:03.305Z,56.37
2018-09-02T15:28:31.062Z,57.01
2018-09-02T15:30:58.975Z,56.48
2018-09-02T15:33:26.621Z,57.03
2018-09-02T15:35:54.250Z,56.04
2018-09-02T15:38:21.902Z,56.88
2018-09-02T15:40:49.552Z,56.18
2018-09-02T15:43:18.210Z,56.23
2018-09-02T15:45:45.983Z,56.71
2018-09-02T15:48:13.684Z,56.76
2018-09-02T15:50:41.431Z,56.76
2018-09-02T15:53:09.288Z,56.88
2018-09-02T15:55:37.275Z,57.05
2018-09-02T15:58:05.087Z,57.04
2018-09-02T16:00:32.812Z,56.41
2018-09-02T16:03:00.434Z,56.70
2018-09-02T16:05:28.135Z,56.28
2018-09-02T16:07:55.783Z,57.03
2018-09-02T16:10:23.404Z,56.12
2018-09-02T16:12:51.298Z,56.37
2018-09-02T16:15:18.931Z,57.00
2018-09-02T16:17:46.593Z,56.56
2018-09-02T16:20:14.335Z,56.39
2018-09-02T16:22:41.898Z,56.67
2018-09-02T16:25:09.547Z,57.22
2018-09-02T16:27:37.185Z,56.31
2018-09-02T16:30:04.961Z,57.02
2018-09-02T16:32:33.834Z,56.34
2018-09-02T16:35:01.785Z,57.07
2018-09-02T16:37:29.497Z,56.32
2018-09-02T16:39:57.150Z,56.41
2018-09-02T16:42:24.773Z,57.00
2018-09-02T16:44:52.567Z,56.51
2018-09-02T16:47:20.209Z,57.23
2018-09-02T16:49:47.854Z,56.51
2018-09-02T16:52:15.485Z,56.56
2018-09-02T16:54:43.117Z,56.49
2018-09-02T16:57:10.777Z,56.83
2018-09-02T16:59:38.402Z,56.86
2018-09-02T17:02:06.107Z,56.94
2018-09-02T17:04:35.509Z,57.46
2018-09-02T17:07:03.201Z,56.77
2018-09-02T17:09:30.877Z,56.98
2018-09-02T17:11:58.619Z,57.29
2018-09-02T17:14:26.182Z,56.75
2018-09-02T17:16:53.854Z,56.65
2018-09-02T17:19:27.658Z,56.46
2018-09-02T17:21:55.434Z,57.47
2018-09-02T17:24:23.071Z,56.65
2018-09-02T17:26:50.710Z,56.66
2018-09-02T17:29:18.409Z,57.14
2018-09-02T17:31:46.070Z,57.39
2018-09-02T17:34:13.696Z,56.67
2018-09-02T17:36:41.352Z,57.27
2018-09-02T17:39:10.399Z,56.67
2018-09-02T17:41:38.045Z,56.79
2018-09-02T17:44:05.704Z,57.20
2018-09-02T17:46:33.347Z,56.77
2018-09-02T17:49:01.053Z,57.39
2018-09-02T17:51:28.700Z,57.32
2018-09-02T17:53:56.333Z,57.22
2018-09-02T17:56:23.961Z,56.62
2018-09-02T17:58:51.596Z,56.19
2018-09-02T18:01:19.622Z,56.65
2018-09-02T18:03:47.268Z,57.48
2018-09-02T18:06:14.915Z,57.25
2018-09-02T18:08:42.581Z,56.28
2018-09-02T18:11:10.237Z,57.31
2018-09-02T18:13:38.185Z,57.19
2018-09-02T18:16:05.889Z,57.39
2018-09-02T18:18:33.532Z,57.39
2018-09-02T18:21:01.280Z,56.76
2018-09-02T18:23:28.932Z,56.65
2018-09-02T18:25:56.582Z,57.30
2018-09-02T18:28:28.192Z,57.39
2018-09-02T18:30:55.840Z,56.81
2018-09-02T18:33:23.515Z,56.79
2018-09-02T18:35:51.185Z,57.39
2018-09-02T18:38:23.855Z,57.13
2018-09-02T18:40:51.554Z,57.29
2018-09-02T18:43:19.189Z,57.55
2018-09-02T18:45:46.836Z,56.79
2018-09-02T18:48:14.535Z,56.79
2018-09-02T18:50:42.173Z,57.57
2018-09-02T18:53:09.809Z,57.37
2018-09-02T18:55:37.478Z,56.63
2018-09-02T18:58:05.126Z,57.96
2018-09-02T19:00:32.849Z,57.25
2018-09-02T19:03:00.534Z,57.37
2018-09-02T19:05:28.163Z,56.78
2018-09-02T19:07:55.878Z,56.82
2018-09-02T19:10:23.556Z,57.57
2018-09-02T19:12:51.245Z,57.17
2018-09-02T19:15:18.893Z,56.76
2018-09-02T19:17:46.530Z,56.74
2018-09-02T19:20:14.171Z,57.51
2018-09-02T19:22:41.815Z,57.54
2018-09-02T19:25:09.450Z,56.78
2018-09-02T19:27:37.241Z,57.31
2018-09-02T19:30:05.261Z,57.49
2018-09-02T19:32:32.914Z,57.54
2018-09-02T19:35:00.573Z,57.19
2018-09-02T19:37:28.281Z,56.92
2018-09-02T19:39:55.908Z,56.76
2018-09-02T19:42:23.551Z,56.71
2018-09-02T19:44:52.247Z,56.76
2018-09-02T19:47:20.029Z,56.75
2018-09-02T19:49:47.896Z,57.01
2018-09-02T19:52:15.744Z,56.80
2018-09-02T19:54:43.553Z,57.56
2018-09-02T19:57:11.314Z,56.89
2018-09-02T19:59:39.086Z,56.80
2018-09-02T20:02:06.805Z,57.32
2018-09-02T20:04:34.644Z,57.51
2018-09-02T20:07:02.389Z,56.74
2018-09-02T20:09:30.140Z,57.49
2018-09-02T20:11:57.944Z,57.47
2018-09-02T20:14:25.770Z,57.47
2018-09-02T20:16:53.699Z,57.58
2018-09-02T20:19:21.546Z,57.73
2018-09-02T20:21:49.364Z,57.60
2018-09-02T20:24:17.302Z,57.46
2018-09-02T20:26:45.087Z,56.78
2018-09-02T20:29:12.824Z,57.73
2018-09-02T20:31:40.539Z,56.99
2018-09-02T20:34:08.397Z,57.46
2018-09-02T20:36:36.159Z,57.51
2018-09-02T20:39:04.716Z,56.85
2018-09-02T20:41:32.460Z,57.36
2018-09-02T20:44:00.177Z,57.01
2018-09-02T20:46:27.906Z,56.94
2018-09-02T20:48:55.681Z,57.30
2018-09-02T20:51:23.550Z,57.27
2018-09-02T20:53:51.370Z,57.21
2018-09-02T20:56:19.149Z,57.01
2018-09-02T20:58:46.979Z,57.22
2018-09-02T21:01:15.115Z,56.87
2018-09-02T21:03:43.086Z,57.48
2018-09-02T21:06:10.901Z,57.38
2018-09-02T21:08:38.695Z,57.12
2018-09-02T21:11:06.446Z,57.52
2018-09-02T21:13:34.193Z,57.64
2018-09-02T21:16:02.028Z,57.45
2018-09-02T21:18:29.906Z,56.78
2018-09-02T21:20:57.583Z,56.85
2018-09-02T21:23:25.241Z,57.70
2018-09-02T21:25:53.081Z,57.56
2018-09-02T21:28:20.790Z,57.81
2018-09-02T21:30:48.522Z,57.06
2018-09-02T21:33:16.330Z,57.05
2018-09-02T21:35:44.008Z,57.11
2018-09-02T21:38:11.685Z,57.76
2018-09-02T21:40:39.441Z,57.69
2018-09-02T21:43:07.165Z,57.08
2018-09-02T21:45:35.624Z,57.48
2018-09-02T21:48:03.387Z,57.00
2018-09-02T21:50:31.161Z,57.63
2018-09-02T21:52:58.911Z,57.09
2018-09-02T21:55:26.649Z,57.69
2018-09-02T21:57:54.398Z,57.37
2018-09-02T22:00:22.117Z,57.41
2018-09-02T22:02:49.827Z,57.65
2018-09-02T22:05:17.595Z,57.25
2018-09-02T22:07:45.277Z,57.67
2018-09-02T22:10:13.015Z,57.21
2018-09-02T22:12:40.780Z,57.08
2018-09-02T22:15:09.121Z,57.07
2018-09-02T22:17:36.862Z,57.61
2018-09-02T22:20:04.977Z,57.50
2018-09-02T22:22:32.693Z,57.17
2018-09-02T22:25:00.349Z,57.35
2018-09-02T22:27:28.036Z,57.07
2018-09-02T22:29:55.713Z,57.67
2018-09-02T22:32:23.424Z,57.77
2018-09-02T22:34:51.095Z,57.19
2018-09-02T22:37:18.828Z,57.07
2018-09-02T22:39:46.532Z,57.11
2018-09-02T22:42:14.382Z,57.06
2018-09-02T22:44:42.130Z,57.13
2018-09-02T22:47:09.856Z,57.18
2018-09-02T22:49:37.612Z,57.17
2018-09-02T22:52:05.384Z,57.70
2018-09-02T22:54:33.074Z,57.74
2018-09-02T22:57:00.838Z,57.17
2018-09-02T22:59:28.504Z,57.69
2018-09-02T23:01:56.247Z,56.94
2018-09-02T23:04:23.974Z,57.80
2018-09-02T23:06:51.659Z,57.74
2018-09-02T23:09:19.371Z,57.70
2018-09-02T23:11:47.043Z,57.77
2018-09-02T23:14:14.728Z,57.22
2018-09-02T23:16:42.461Z,57.02
2018-09-02T23:19:10.229Z,57.55
2018-09-02T23:21:37.909Z,57.30
2018-09-02T23:24:05.680Z,57.26
2018-09-02T23:26:33.436Z,57.92
2018-09-02T23:29:01.208Z,57.82
2018-09-02T23:31:28.848Z,57.64
2018-09-02T23:33:56.557Z,57.64
2018-09-02T23:36:24.277Z,57.07
2018-09-02T23:38:51.988Z,57.25
2018-09-02T23:41:19.705Z,57.56
2018-09-02T23:43:47.359Z,57.10
2018-09-02T23:46:15.042Z,57.06
2018-09-02T23:48:42.740Z,57.05
2018-09-02T23:51:10.386Z,57.48
2018-09-02T23:53:38.246Z,57.58
2018-09-02T23:56:06.177Z,57.67
2018-09-02T23:58:33.865Z,57.45
